Date,TemperatureHighF,TemperatureAvgF,TemperatureLowF,DewpointHighF,DewpointAvgF,DewpointLowF,HumidityHigh,HumidityAvg,HumidityLow,PressureMaxIn,PressureMinIn,WindSpeedMaxMPH,WindSpeedAvgMPH,GustSpeedMaxMPH,PrecipitationSumIn
2013-3-9,55.9,55.3,54.1,46.6,45.4,43.8,72,69,67,29.81,29.80,3,2,6,0.00
2013-3-10,73.9,61.2,52.3,48.1,43.6,37.4,81,55,31,29.81,29.69,6,3,12,0.00
2013-3-11,75.7,62.9,52.7,53.3,46.3,38.5,85,58,36,29.77,29.56,10,3,16,0.00
2013-3-12,69.8,60.5,53.0,44.1,37.4,33.5,58,43,28,29.72,29.57,16,5,22,0.00
2013-3-13,72.6,59.1,47.8,53.6,40.7,36.9,89,53,31,29.76,29.66,9,3,13,0.00
2013-3-14,69.6,61.2,55.4,53.4,43.8,33.0,89,55,36,29.74,29.31,17,7,23,0.00
2013-3-15,64.2,55.3,48.0,39.1,34.0,30.2,55,45,35,29.64,29.38,17,6,24,0.00
2013-3-16,58.8,48.5,42.4,37.1,31.0,27.8,65,51,36,30.01,29.61,11,4,18,0.00
2013-3-17,60.6,47.0,41.1,33.5,29.2,26.5,67,51,35,30.19,29.98,10,4,15,0.00
2013-3-18,59.3,49.2,40.6,47.4,38.0,30.3,92,67,42,30.20,29.97,6,3,10,0.00
2013-3-19,69.9,57.9,49.4,52.4,46.5,42.5,90,69,40,29.97,29.75,9,3,15,0.00
2013-3-20,75.7,60.8,49.1,51.9,46.4,38.0,91,63,35,29.89,29.83,8,3,13,0.00
2013-3-21,67.2,60.3,54.8,54.2,50.1,35.8,93,71,44,29.83,29.52,13,5,21,0.00
2013-3-22,64.9,56.7,49.4,36.5,30.7,20.4,57,38,26,29.75,29.53,19,10,30,0.00
2013-3-23,70.8,56.1,45.1,32.0,4.5,-14.0,52,18,3,29.97,29.72,10,4,13,0.00
2013-3-24,72.6,57.8,46.0,48.4,40.5,31.4,78,54,35,30.00,29.88,10,4,17,0.00
2013-3-25,66.0,58.5,52.7,53.5,48.3,41.3,91,70,49,29.96,29.59,15,6,21,0.00
2013-3-26,68.7,59.7,50.7,53.6,41.9,36.4,91,54,36,29.65,29.49,17,6,24,0.00
2013-3-27,70.7,60.2,51.4,45.1,41.6,36.2,66,51,37,29.83,29.65,9,3,17,0.00
2013-3-28,73.7,58.4,52.5,52.2,46.0,40.2,91,65,41,30.05,29.84,8,2,12,0.04
2013-3-29,75.2,59.8,50.1,54.3,48.2,40.8,97,69,36,30.07,29.95,6,2,9,0.00
2013-3-30,61.8,58.2,55.0,49.1,45.4,40.8,78,63,48,29.99,29.83,8,2,11,0.00
2013-3-31,75.5,64.0,56.8,51.5,47.2,40.4,77,56,38,29.86,29.70,9,4,15,0.00